Weather reports worldwide

Advertisment
Figueras Castropol, Spain (8009): temperature & dewpoint: 04.12.2018 10:00:00 - 10.12.2018 10:00:00 (CET)Figueras Castropol, Spain (8009): wind speed & gusts: 04.12.2018 10:00:00 - 10.12.2018 10:00:00 (CET)Figueras Castropol, Spain (8009): wind direction: 04.12.2018 10:00:00 - 10.12.2018 10:00:00 (CET)Figueras Castropol, Spain (8009): precipitation: 04.12.2018 10:00:00 - 10.12.2018 10:00:00 (CET)
Date & Time tt [°C] td [°C] ff [km/h] ff [kn] fx [km/h] fx [kn] dd rr [mm]
10.12.2018 10:00:00 6,6 5,3 9 5 19 10 SSW 0,0
10.12.2018 09:00:00 5,2 4,5 7 4 16 9 SSW 0,0
10.12.2018 08:00:00 5,6 4,8 9 5 18 10 SSW 0,0
10.12.2018 07:00:00 6,0 5,3 9 5 18 10 S -
10.12.2018 06:00:00 6,0 5,1 5 3 17 9 SSW 0,0
10.12.2018 05:00:00 6,4 5,3 6 3 16 9 SSW 0,0
10.12.2018 04:00:00 6,7 5,5 8 4 15 8 S 0,0
10.12.2018 03:00:00 7,5 5,9 6 4 13 7 SSW 0,0
10.12.2018 02:00:00 8,6 6,7 7 4 13 7 SSW 0,0
10.12.2018 01:00:00 9,0 7,1 3 2 7 4 S -
10.12.2018 00:00:00 10,3 8,1 0 0 4 2 SSW 0,0
09.12.2018 23:00:00 11,1 8,3 1 0 4 2 SE 0,0
09.12.2018 22:00:00 11,9 8,9 0 0 6 4 NE 0,0
09.12.2018 21:00:00 11,9 9,4 0 0 0 0 N 0,0
09.12.2018 20:00:00 12,1 9,3 0 0 4 2 N 0,0
09.12.2018 19:00:00 12,4 9,2 0 0 5 3 E -
09.12.2018 18:00:00 12,8 9,0 2 1 9 5 NNE 0,0
09.12.2018 17:00:00 13,4 8,0 2 1 11 6 NNW 0,0
09.12.2018 16:00:00 13,7 8,1 4 2 17 9 NNW 0,0
09.12.2018 15:00:00 14,3 8,3 5 3 17 9 NNW 0,0
09.12.2018 14:00:00 15,2 8,7 7 4 23 12 NNW 0,0
09.12.2018 13:00:00 15,6 9,3 7 4 19 11 NNW -
09.12.2018 12:00:00 16,2 9,6 4 2 17 9 WNW 0,0
09.12.2018 11:00:00 14,4 9,7 4 2 11 6 W 0,0
09.12.2018 10:00:00 11,4 8,3 4 2 10 6 SW 0,0
09.12.2018 09:00:00 11,9 8,5 5 3 10 6 SSW 0,0
09.12.2018 08:00:00 12,9 8,9 9 5 20 11 W 0,0
09.12.2018 07:00:00 12,3 8,9 8 4 16 9 WSW -
09.12.2018 06:00:00 12,7 8,8 8 4 21 11 SSW 0,0
09.12.2018 05:00:00 13,4 9,3 10 5 23 13 WSW 0,0
09.12.2018 04:00:00 13,6 9,7 12 6 26 14 SW 0,0
09.12.2018 03:00:00 13,7 9,7 13 7 31 17 WSW 0,0
09.12.2018 02:00:00 13,6 9,7 11 6 32 17 WSW 0,0
09.12.2018 01:00:00 13,5 9,6 16 8 36 20 SW -
09.12.2018 00:00:00 13,3 9,3 16 9 38 20 SW 0,0
08.12.2018 23:00:00 13,4 8,7 14 8 41 22 SW 0,0
08.12.2018 22:00:00 13,8 8,4 19 10 41 22 SW 0,0
08.12.2018 21:00:00 14,0 8,0 13 7 41 22 SW 0,0
08.12.2018 20:00:00 13,8 7,1 22 12 48 26 SSW 0,0
08.12.2018 19:00:00 13,7 7,4 21 12 41 22 SSW -
08.12.2018 18:00:00 13,6 7,4 18 10 43 23 SW 0,0
08.12.2018 17:00:00 14,6 7,0 16 8 44 24 SW 0,0
08.12.2018 16:00:00 14,7 6,5 22 12 44 24 SW 0,0
08.12.2018 15:00:00 15,5 6,2 17 9 44 24 SW 0,0
08.12.2018 14:00:00 14,3 5,9 17 9 44 24 SSW 0,0
08.12.2018 13:00:00 14,6 5,9 20 11 50 27 SW -
08.12.2018 12:00:00 13,8 5,9 21 11 40 22 SW 0,0
08.12.2018 11:00:00 12,4 6,2 16 9 31 17 SSW 0,0
08.12.2018 10:00:00 10,3 5,9 12 7 26 14 SSW 0,0
08.12.2018 09:00:00 9,3 5,3 10 5 24 13 SSW 0,0
08.12.2018 08:00:00 8,9 5,3 8 4 25 13 SW 0,0
08.12.2018 07:00:00 8,7 5,1 13 7 27 15 SSW -
08.12.2018 06:00:00 8,6 5,8 10 5 19 10 SW 0,0
08.12.2018 05:00:00 9,1 5,9 11 6 26 14 SW 0,0
08.12.2018 04:00:00 8,5 5,8 16 8 29 16 SSW 0,0
08.12.2018 03:00:00 7,9 5,8 9 5 19 10 SSW 0,0
08.12.2018 02:00:00 8,0 5,8 11 6 23 12 SSW 0,0
08.12.2018 01:00:00 8,3 5,6 12 6 24 13 SSW -
08.12.2018 00:00:00 8,8 5,3 10 5 21 11 SSW 0,0
07.12.2018 23:00:00 9,6 5,6 9 5 16 8 SSW 0,0
07.12.2018 22:00:00 10,1 5,5 9 5 16 9 SSW 0,0
07.12.2018 21:00:00 10,4 5,8 8 4 15 8 WSW 0,0
07.12.2018 20:00:00 11,3 5,6 9 5 17 9 SW 0,0
07.12.2018 19:00:00 11,5 5,9 6 3 24 13 SSW -
07.12.2018 18:00:00 12,4 6,7 13 7 33 18 W 0,0
07.12.2018 17:00:00 12,5 9,2 15 8 39 21 W 0,0
07.12.2018 16:00:00 12,8 11,2 14 7 28 15 W 0,3
07.12.2018 15:00:00 12,3 10,9 11 6 29 16 WNW 2,2
07.12.2018 14:00:00 14,4 9,8 19 10 43 23 SW 0,0
07.12.2018 13:00:00 14,8 9,6 22 12 46 25 SW -
07.12.2018 12:00:00 14,7 9,6 22 12 61 33 SW 0,0
07.12.2018 11:00:00 14,7 9,3 25 14 53 28 SW 0,0
07.12.2018 10:00:00 14,3 8,5 19 10 48 26 SW 0,0
07.12.2018 09:00:00 13,5 8,4 17 9 43 23 SW 0,0
07.12.2018 08:00:00 13,5 8,4 19 10 44 24 SW 0,0
07.12.2018 07:00:00 12,7 7,8 15 8 33 18 SW -
07.12.2018 06:00:00 12,8 7,3 14 7 48 26 WSW 0,0
07.12.2018 05:00:00 11,9 6,4 22 12 47 26 SW 0,0
07.12.2018 04:00:00 13,0 6,8 17 9 45 24 SW 0,0
07.12.2018 03:00:00 12,4 7,3 8 5 32 17 SW 0,0
07.12.2018 02:00:00 10,7 6,7 8 4 22 12 S 0,0
07.12.2018 01:00:00 11,4 6,7 8 4 18 10 SSW -
07.12.2018 00:00:00 11,3 6,7 9 5 16 9 SSW 0,0
06.12.2018 23:00:00 12,0 7,3 11 6 21 11 SW 0,0
06.12.2018 22:00:00 11,7 7,6 11 6 21 11 SW 0,0
06.12.2018 21:00:00 11,3 6,7 8 5 15 8 SW 0,0
06.12.2018 20:00:00 12,2 6,7 8 4 14 8 SW 0,0
06.12.2018 19:00:00 13,0 6,8 7 4 15 8 SSW -
06.12.2018 18:00:00 13,8 6,7 7 4 16 9 WSW 0,0
06.12.2018 17:00:00 16,3 7,0 8 4 22 12 WSW 0,0
06.12.2018 16:00:00 16,4 7,0 11 6 31 17 WSW 0,0
06.12.2018 15:00:00 17,0 8,1 12 7 28 15 SW 0,0
06.12.2018 14:00:00 16,4 7,8 11 6 28 15 SW 0,0
06.12.2018 13:00:00 16,2 8,1 11 6 30 16 WSW -
06.12.2018 12:00:00 14,7 8,4 10 6 22 12 WSW 0,0
06.12.2018 11:00:00 14,2 8,4 9 5 27 15 WSW 0,0
06.12.2018 10:00:00 13,5 8,4 9 5 26 14 W 0,0
06.12.2018 09:00:00 13,1 8,0 14 7 31 17 SW 0,0
06.12.2018 08:00:00 12,6 8,5 14 8 24 13 W 0,0
06.12.2018 07:00:00 11,9 8,8 8 5 17 9 W -
06.12.2018 06:00:00 11,5 8,4 5 3 13 7 W 0,0
06.12.2018 05:00:00 12,3 8,5 5 3 15 8 W 0,0
06.12.2018 04:00:00 13,9 8,9 6 3 36 19 W 0,0
06.12.2018 03:00:00 15,0 9,6 15 8 38 21 WSW 0,0
06.12.2018 02:00:00 14,9 9,7 13 7 30 16 SW 0,0
06.12.2018 01:00:00 15,3 9,7 11 6 25 14 WSW -
06.12.2018 00:00:00 15,1 9,7 10 5 28 15 WSW 0,0
05.12.2018 23:00:00 15,7 9,8 13 7 38 20 WSW 0,0
05.12.2018 22:00:00 15,6 9,9 13 7 34 18 WSW 0,0
05.12.2018 21:00:00 16,0 9,9 16 8 43 23 SW 0,0
05.12.2018 20:00:00 16,5 9,7 16 8 39 21 WSW 0,0
05.12.2018 19:00:00 16,6 9,6 16 8 40 22 SW -
05.12.2018 18:00:00 16,9 9,6 19 10 42 23 SW 0,0
05.12.2018 17:00:00 17,4 9,6 16 8 43 23 SW 0,0
05.12.2018 16:00:00 18,7 9,2 16 8 48 26 SW 0,0
05.12.2018 15:00:00 18,8 9,0 23 12 46 25 SW 0,0
05.12.2018 14:00:00 18,8 8,8 22 12 51 27 SSW 0,0
05.12.2018 13:00:00 18,9 8,5 20 11 54 29 SW -
05.12.2018 12:00:00 18,0 8,0 21 11 59 32 SSW 0,0
05.12.2018 11:00:00 15,7 7,0 24 13 56 30 SSW 0,0
05.12.2018 10:00:00 15,6 7,1 21 11 53 29 SSW 0,0
05.12.2018 09:00:00 13,9 7,0 18 10 37 20 SSW 0,0
05.12.2018 08:00:00 13,7 7,7 11 6 34 18 SW 0,0
05.12.2018 07:00:00 10,2 9,8 8 4 20 11 SW -
05.12.2018 06:00:00 8,8 8,4 1 1 8 5 SE 0,1
05.12.2018 05:00:00 8,5 8,1 5 3 12 6 SSW 0,0
05.12.2018 04:00:00 9,3 8,8 5 3 14 7 SSW 0,0
05.12.2018 03:00:00 9,4 9,3 8 5 19 10 SW 0,0
05.12.2018 02:00:00 9,3 9,0 8 4 15 8 S 0,0
05.12.2018 01:00:00 9,5 9,0 6 3 12 6 SSW -
05.12.2018 00:00:00 10,0 9,4 5 3 11 6 S 0,0
04.12.2018 23:00:00 10,4 9,8 5 3 9 5 SSW 0,0
04.12.2018 22:00:00 10,5 9,7 4 2 8 4 SSW 0,0
04.12.2018 21:00:00 11,2 10,0 3 2 7 4 SW 0,0
04.12.2018 20:00:00 12,2 10,8 0 0 4 2 SW 0,0
04.12.2018 19:00:00 12,8 10,5 0 0 9 5 N -
04.12.2018 18:00:00 14,2 11,2 4 2 16 9 NW 0,0
04.12.2018 17:00:00 15,9 11,7 4 2 16 9 NNW 0,0
04.12.2018 16:00:00 18,0 12,4 0 0 9 5 ENE 0,0
04.12.2018 15:00:00 17,8 12,4 4 2 11 6 NNE 0,0
04.12.2018 14:00:00 18,9 12,6 2 1 9 5 W 0,0
04.12.2018 13:00:00 17,8 13,4 6 4 13 7 S -
04.12.2018 12:00:00 16,3 12,8 8 4 17 9 S 0,0
04.12.2018 11:00:00 13,8 12,5 8 5 19 10 SSW 0,0
04.12.2018 10:00:00 12,5 11,9 8 4 15 8 S 0,0

tt = temperature
td = dewpoint
ff = wind speed
fx = gusts
dd = wind direction
rr = precipitation

Next stations